createdAt,value
2022-10-13T00:00:16.784Z,13.99
2022-10-13T00:01:17.033Z,14.03
2022-10-13T00:02:17.414Z,13.95
2022-10-13T00:03:17.274Z,13.95
2022-10-13T00:04:17.444Z,13.98
2022-10-13T00:05:17.605Z,13.98
2022-10-13T00:06:17.780Z,13.96
2022-10-13T00:07:17.967Z,13.93
2022-10-13T00:08:18.125Z,13.93
2022-10-13T00:09:18.296Z,13.96
2022-10-13T00:10:18.459Z,13.89
2022-10-13T00:11:18.637Z,13.91
2022-10-13T00:12:19.059Z,13.92
2022-10-13T00:13:18.945Z,13.95
2022-10-13T00:14:19.148Z,13.91
2022-10-13T00:15:19.297Z,13.89
2022-10-13T00:16:19.516Z,13.85
2022-10-13T00:17:19.668Z,13.85
2022-10-13T00:18:19.858Z,13.85
2022-10-13T00:19:20.020Z,13.84
2022-10-13T00:20:20.179Z,13.84
2022-10-13T00:21:20.350Z,13.84
2022-10-13T00:22:20.990Z,13.84
2022-10-13T00:23:20.677Z,13.84
2022-10-13T00:24:20.839Z,13.81
2022-10-13T00:25:21.001Z,13.85
2022-10-13T00:26:21.170Z,13.81
2022-10-13T00:27:21.321Z,13.81
2022-10-13T00:28:21.554Z,13.76
2022-10-13T00:29:21.707Z,13.76
2022-10-13T00:30:21.871Z,13.78
2022-10-13T00:31:22.052Z,13.74
2022-10-13T00:32:22.212Z,13.78
2022-10-13T00:33:22.401Z,13.76
2022-10-13T00:34:22.590Z,13.74
2022-10-13T00:35:22.765Z,13.73
2022-10-13T00:36:22.960Z,13.74
2022-10-13T00:37:23.120Z,13.76
2022-10-13T00:38:23.278Z,13.73
2022-10-13T00:39:23.434Z,13.73
2022-10-13T00:40:23.593Z,13.68
2022-10-13T00:41:23.754Z,13.68
2022-10-13T00:42:23.916Z,13.68
2022-10-13T00:43:24.072Z,13.71
2022-10-13T00:44:24.226Z,13.67
2022-10-13T00:45:24.416Z,13.67
2022-10-13T00:46:24.594Z,13.66
2022-10-13T00:47:24.745Z,13.67
2022-10-13T00:48:24.907Z,13.64
2022-10-13T00:49:25.076Z,13.64
2022-10-13T00:50:25.228Z,13.66
2022-10-13T00:51:25.437Z,13.59
2022-10-13T00:52:25.598Z,13.62
2022-10-13T00:53:25.797Z,13.56
2022-10-13T00:54:25.957Z,13.58
2022-10-13T00:55:26.116Z,13.59
2022-10-13T00:56:26.279Z,13.59
2022-10-13T00:57:26.440Z,13.56
2022-10-13T00:58:26.591Z,13.53
2022-10-13T00:59:26.789Z,13.55
2022-10-13T01:00:27.010Z,13.53
2022-10-13T01:01:27.149Z,13.55
2022-10-13T01:02:27.311Z,13.52
2022-10-13T01:03:27.500Z,13.52
2022-10-13T01:04:27.651Z,13.51
2022-10-13T01:05:27.850Z,13.49
2022-10-13T01:06:28.022Z,13.49
2022-10-13T01:07:28.192Z,13.49
2022-10-13T01:08:28.363Z,13.46
2022-10-13T01:09:28.542Z,13.44
2022-10-13T01:10:28.711Z,13.48
2022-10-13T01:11:28.887Z,13.43
2022-10-13T01:12:29.041Z,13.46
2022-10-13T01:13:29.203Z,13.44
2022-10-13T01:14:29.383Z,13.44
2022-10-13T01:15:29.556Z,13.41
2022-10-13T01:16:29.714Z,13.41
2022-10-13T01:17:29.864Z,13.37
2022-10-13T01:18:30.036Z,13.37
2022-10-13T01:19:30.207Z,13.37
2022-10-13T01:20:30.357Z,13.34
2022-10-13T01:21:30.545Z,13.34
2022-10-13T01:22:30.715Z,13.35
2022-10-13T01:23:30.875Z,13.38
2022-10-13T01:24:31.046Z,13.33
2022-10-13T01:25:31.214Z,13.33
2022-10-13T01:26:31.373Z,13.35
2022-10-13T01:27:31.537Z,13.33
2022-10-13T01:28:31.746Z,13.33
2022-10-13T01:29:31.955Z,13.30
2022-10-13T01:30:32.048Z,13.31
2022-10-13T01:31:32.237Z,13.27
2022-10-13T01:32:32.398Z,13.27
2022-10-13T01:33:32.561Z,13.28
2022-10-13T01:34:32.738Z,13.28
2022-10-13T01:35:32.898Z,13.30
2022-10-13T01:36:33.059Z,13.30
2022-10-13T01:37:33.218Z,13.28
2022-10-13T01:38:33.402Z,13.27
2022-10-13T01:39:33.550Z,13.27
2022-10-13T01:40:33.719Z,13.27
2022-10-13T01:41:33.871Z,13.27
2022-10-13T01:42:34.060Z,13.25
2022-10-13T01:43:34.227Z,13.23
2022-10-13T01:44:34.397Z,13.28
2022-10-13T01:45:34.556Z,13.23
2022-10-13T01:46:34.721Z,13.23
2022-10-13T01:47:34.879Z,13.23
2022-10-13T01:48:35.054Z,13.28
2022-10-13T01:49:35.212Z,13.27
2022-10-13T01:50:35.362Z,13.25
2022-10-13T01:51:35.554Z,13.25
2022-10-13T01:52:35.722Z,13.25
2022-10-13T01:53:35.934Z,13.25
2022-10-13T01:54:36.091Z,13.25
2022-10-13T01:55:36.253Z,13.27
2022-10-13T01:56:36.404Z,13.27
2022-10-13T01:57:36.600Z,13.25
2022-10-13T01:58:36.776Z,13.27
2022-10-13T01:59:36.940Z,13.25
2022-10-13T02:00:37.136Z,13.25
2022-10-13T02:01:37.285Z,13.28
2022-10-13T02:02:37.454Z,13.25
2022-10-13T02:03:37.657Z,13.27
2022-10-13T02:04:37.807Z,13.28
2022-10-13T02:05:38.005Z,13.28
2022-10-13T02:06:38.167Z,13.25
2022-10-13T02:07:38.338Z,13.27
2022-10-13T02:08:38.493Z,13.27
2022-10-13T02:09:38.689Z,13.30
2022-10-13T02:10:38.871Z,13.23
2022-10-13T02:11:39.037Z,13.22
2022-10-13T02:12:39.209Z,13.25
2022-10-13T02:13:39.396Z,13.27
2022-10-13T02:14:39.518Z,13.25
2022-10-13T02:15:39.681Z,13.25
2022-10-13T02:16:39.839Z,13.27
2022-10-13T02:17:40.033Z,13.25
2022-10-13T02:18:40.158Z,13.22
2022-10-13T02:19:40.324Z,13.20
2022-10-13T02:20:40.480Z,13.22
2022-10-13T02:21:40.642Z,13.25
2022-10-13T02:22:40.840Z,13.19
2022-10-13T02:23:41.001Z,13.22
2022-10-13T02:24:41.161Z,13.22
2022-10-13T02:25:41.321Z,13.23
2022-10-13T02:26:41.488Z,13.22
2022-10-13T02:27:41.641Z,13.19
2022-10-13T02:28:41.832Z,13.19
2022-10-13T02:29:41.972Z,13.19
2022-10-13T02:30:42.132Z,13.19
2022-10-13T02:31:42.335Z,13.20
2022-10-13T02:32:42.494Z,13.22
2022-10-13T02:33:42.686Z,13.19
2022-10-13T02:34:42.854Z,13.19
2022-10-13T02:35:43.005Z,13.19
2022-10-13T02:36:43.165Z,13.18
2022-10-13T02:37:43.328Z,13.15
2022-10-13T02:38:43.485Z,13.12
2022-10-13T02:39:43.697Z,13.16
2022-10-13T02:40:43.845Z,13.15
2022-10-13T02:41:44.040Z,13.13
2022-10-13T02:42:44.196Z,13.13
2022-10-13T02:43:44.376Z,13.12
2022-10-13T02:44:44.536Z,13.11
2022-10-13T02:45:44.702Z,13.12
2022-10-13T02:46:44.859Z,13.12
2022-10-13T02:47:45.018Z,13.12
2022-10-13T02:48:45.190Z,13.09
2022-10-13T02:49:45.349Z,13.11
2022-10-13T02:50:45.509Z,13.11
2022-10-13T02:51:45.668Z,13.11
2022-10-13T02:52:45.827Z,13.11
2022-10-13T02:53:45.999Z,13.09
2022-10-13T02:54:46.169Z,13.11
2022-10-13T02:55:46.317Z,13.07
2022-10-13T02:56:46.474Z,13.07
2022-10-13T02:57:46.645Z,13.09
2022-10-13T02:58:46.820Z,13.05
2022-10-13T02:59:46.983Z,13.09
2022-10-13T03:00:47.181Z,13.07
2022-10-13T03:01:47.393Z,13.04
2022-10-13T03:02:47.507Z,13.05
2022-10-13T03:03:47.717Z,13.04
2022-10-13T03:04:47.872Z,13.07
2022-10-13T03:05:48.042Z,13.05
2022-10-13T03:06:48.203Z,13.09
2022-10-13T03:07:48.403Z,13.04
2022-10-13T03:08:48.574Z,13.05
2022-10-13T03:09:48.731Z,13.03
2022-10-13T03:10:48.902Z,13.04
2022-10-13T03:11:49.043Z,13.01
2022-10-13T03:12:49.204Z,13.03
2022-10-13T03:13:49.375Z,13.03
2022-10-13T03:14:49.537Z,13.01
2022-10-13T03:15:49.709Z,13.00
2022-10-13T03:16:49.875Z,13.01
2022-10-13T03:17:50.046Z,13.01
2022-10-13T03:18:50.226Z,12.98
2022-10-13T03:19:50.385Z,13.01
2022-10-13T03:20:50.545Z,13.01
2022-10-13T03:21:50.701Z,12.98
2022-10-13T03:22:50.857Z,12.97
2022-10-13T03:23:51.038Z,12.97
2022-10-13T03:24:51.207Z,12.97
2022-10-13T03:25:51.376Z,12.97
2022-10-13T03:26:51.548Z,12.98
2022-10-13T03:27:51.698Z,13.00
2022-10-13T03:28:51.952Z,12.93
2022-10-13T03:29:52.038Z,12.95
2022-10-13T03:30:52.198Z,12.94
2022-10-13T03:31:52.364Z,12.97
2022-10-13T03:32:52.559Z,12.94
2022-10-13T03:33:52.738Z,12.95
2022-10-13T03:34:52.910Z,12.93
2022-10-13T03:35:53.069Z,12.95
2022-10-13T03:36:53.220Z,12.94
2022-10-13T03:37:53.418Z,12.91
2022-10-13T03:38:53.605Z,12.94
2022-10-13T03:39:53.770Z,12.95
2022-10-13T03:40:53.941Z,12.86
2022-10-13T03:41:54.112Z,12.94
2022-10-13T03:42:54.276Z,12.91
2022-10-13T03:43:54.451Z,12.87
2022-10-13T03:44:56.585Z,12.90
2022-10-13T03:45:54.772Z,12.93
2022-10-13T03:46:54.942Z,12.91
2022-10-13T03:47:55.113Z,12.90
2022-10-13T03:48:55.289Z,12.90
2022-10-13T03:49:55.444Z,12.86
2022-10-13T03:50:55.604Z,12.90
2022-10-13T03:51:55.764Z,12.91
2022-10-13T03:52:55.933Z,12.86
2022-10-13T03:53:56.107Z,12.86
2022-10-13T03:54:56.275Z,12.85
2022-10-13T03:55:56.435Z,12.86
2022-10-13T03:56:56.587Z,12.86
2022-10-13T03:57:56.765Z,12.90
2022-10-13T03:58:56.936Z,12.82
2022-10-13T03:59:57.106Z,12.86
2022-10-13T04:00:57.297Z,12.83
2022-10-13T04:01:57.506Z,12.85
2022-10-13T04:02:57.666Z,12.86
2022-10-13T04:03:57.837Z,12.86
2022-10-13T04:04:58.009Z,12.85
2022-10-13T04:05:58.165Z,12.83
2022-10-13T04:06:58.338Z,12.86
2022-10-13T04:07:58.518Z,12.90
2022-10-13T04:08:58.679Z,12.86
2022-10-13T04:09:58.838Z,12.86
2022-10-13T04:10:59.010Z,12.86
2022-10-13T04:11:59.188Z,12.85
2022-10-13T04:12:59.331Z,12.87
2022-10-13T04:13:59.500Z,12.83
2022-10-13T04:14:59.671Z,12.86
2022-10-13T04:15:59.842Z,12.83
2022-10-13T04:17:00.022Z,12.86
2022-10-13T04:18:00.180Z,12.85
2022-10-13T04:19:00.380Z,12.82
2022-10-13T04:20:00.531Z,12.83
2022-10-13T04:21:00.741Z,12.86
2022-10-13T04:22:00.912Z,12.85
2022-10-13T04:23:01.083Z,12.79
2022-10-13T04:24:01.257Z,12.82
2022-10-13T04:25:01.436Z,12.86
2022-10-13T04:26:01.603Z,12.86
2022-10-13T04:27:01.782Z,12.86
2022-10-13T04:28:01.959Z,12.86
2022-10-13T04:29:02.115Z,12.86
2022-10-13T04:30:02.295Z,12.82
2022-10-13T04:31:02.453Z,12.82
2022-10-13T04:32:02.605Z,12.82
2022-10-13T04:33:02.794Z,12.83
2022-10-13T04:34:02.951Z,12.85
2022-10-13T04:35:03.157Z,12.82
2022-10-13T04:36:03.323Z,12.86
2022-10-13T04:37:03.494Z,12.80
2022-10-13T04:38:03.646Z,12.82
2022-10-13T04:39:03.812Z,12.82
2022-10-13T04:40:03.976Z,12.80
2022-10-13T04:41:04.136Z,12.78
2022-10-13T04:42:04.298Z,12.80
2022-10-13T04:43:04.455Z,12.79
2022-10-13T04:44:04.606Z,12.80
2022-10-13T04:45:04.793Z,12.78
2022-10-13T04:46:04.958Z,12.80
2022-10-13T04:47:05.128Z,12.79
2022-10-13T04:48:05.293Z,12.79
2022-10-13T04:49:05.478Z,12.79
2022-10-13T04:50:05.658Z,12.79
2022-10-13T04:51:05.830Z,12.80
2022-10-13T04:52:05.990Z,12.78
2022-10-13T04:53:06.162Z,12.78
2022-10-13T04:54:06.349Z,12.74
2022-10-13T04:55:06.520Z,12.78
2022-10-13T04:56:06.682Z,12.78
2022-10-13T04:57:06.850Z,12.78
2022-10-13T04:58:07.015Z,12.75
2022-10-13T04:59:07.208Z,12.79
2022-10-13T05:00:07.380Z,12.78
2022-10-13T05:01:07.614Z,12.78
2022-10-13T05:02:07.737Z,12.78
2022-10-13T05:03:07.902Z,12.75
2022-10-13T05:04:08.084Z,12.74
2022-10-13T05:05:08.261Z,12.79
2022-10-13T05:06:08.433Z,12.78
2022-10-13T05:07:24.056Z,12.78
2022-10-13T05:08:09.754Z,12.75
2022-10-13T05:09:08.936Z,12.75
2022-10-13T05:10:09.083Z,12.78
2022-10-13T05:11:09.253Z,12.79
2022-10-13T05:12:09.430Z,12.79
2022-10-13T05:13:09.593Z,12.75
2022-10-13T05:14:09.775Z,12.78
2022-10-13T05:15:09.945Z,12.79
2022-10-13T05:16:10.114Z,12.74
2022-10-13T05:17:10.285Z,12.78
2022-10-13T05:18:10.446Z,12.80
2022-10-13T05:19:10.646Z,12.75
2022-10-13T05:20:10.783Z,12.75
2022-10-13T05:21:10.948Z,12.78
2022-10-13T05:22:11.117Z,12.74
2022-10-13T05:23:11.293Z,12.75
2022-10-13T05:24:11.479Z,12.72
2022-10-13T05:25:11.658Z,12.82
2022-10-13T05:26:11.837Z,12.75
2022-10-13T05:27:11.999Z,12.79
2022-10-13T05:28:12.236Z,12.74
2022-10-13T05:29:12.350Z,12.82
2022-10-13T05:30:12.511Z,12.75
2022-10-13T05:31:12.694Z,12.79
2022-10-13T05:32:12.859Z,12.74
2022-10-13T05:33:13.030Z,12.80
2022-10-13T05:34:13.221Z,12.75
2022-10-13T05:35:13.387Z,12.75
2022-10-13T05:36:13.550Z,12.78
2022-10-13T05:37:13.723Z,12.79
2022-10-13T05:38:13.891Z,12.78
2022-10-13T05:39:14.092Z,12.79
2022-10-13T05:40:14.233Z,12.75
2022-10-13T05:41:14.413Z,12.75
2022-10-13T05:42:14.587Z,12.78
2022-10-13T05:43:14.792Z,12.75
2022-10-13T05:44:14.950Z,12.78
2022-10-13T05:45:15.287Z,12.80
2022-10-13T05:46:15.299Z,12.78
2022-10-13T05:47:15.490Z,12.78
2022-10-13T05:48:15.675Z,12.78
2022-10-13T05:49:15.880Z,12.80
2022-10-13T05:50:16.031Z,12.78
2022-10-13T05:51:16.245Z,12.75
2022-10-13T05:52:16.563Z,12.80
2022-10-13T05:53:16.565Z,12.78
2022-10-13T05:54:16.755Z,12.82
2022-10-13T05:55:16.915Z,12.80
2022-10-13T05:56:17.115Z,12.79
2022-10-13T05:57:17.273Z,12.80
2022-10-13T05:58:17.425Z,12.79
2022-10-13T05:59:17.613Z,12.79
2022-10-13T06:00:17.818Z,12.79
2022-10-13T06:01:17.968Z,12.75
2022-10-13T06:02:18.479Z,12.80
2022-10-13T06:03:18.316Z,12.80
2022-10-13T06:04:18.508Z,12.78
2022-10-13T06:05:18.682Z,12.80
2022-10-13T06:06:18.842Z,12.82
2022-10-13T06:07:19.026Z,12.78
2022-10-13T06:08:19.220Z,12.82
2022-10-13T06:09:19.381Z,12.82
2022-10-13T06:10:19.549Z,12.80
2022-10-13T06:11:19.709Z,12.80
2022-10-13T06:12:20.257Z,12.82
2022-10-13T06:13:20.040Z,12.82
2022-10-13T06:14:20.196Z,12.83
2022-10-13T06:15:24.443Z,12.79
2022-10-13T06:16:21.566Z,12.82
2022-10-13T06:17:20.736Z,12.80
2022-10-13T06:18:20.921Z,12.80
2022-10-13T06:19:21.120Z,12.82
2022-10-13T06:20:21.283Z,12.85
2022-10-13T06:21:21.442Z,12.85
2022-10-13T06:22:22.173Z,12.80
2022-10-13T06:23:21.761Z,12.86
2022-10-13T06:24:21.957Z,12.80
2022-10-13T06:25:22.153Z,12.80
2022-10-13T06:26:22.308Z,12.82
2022-10-13T06:27:22.494Z,12.85
2022-10-13T06:28:22.745Z,12.85
2022-10-13T06:29:22.865Z,12.83
2022-10-13T06:30:23.014Z,12.83
2022-10-13T06:31:23.206Z,12.83
2022-10-13T06:32:23.615Z,12.83
2022-10-13T06:33:23.543Z,12.82
2022-10-13T06:34:23.690Z,12.85
2022-10-13T06:35:23.877Z,12.85
2022-10-13T06:36:24.036Z,12.87
2022-10-13T06:37:27.341Z,12.86
2022-10-13T06:38:24.411Z,12.87
2022-10-13T06:39:24.567Z,12.83
2022-10-13T06:40:24.760Z,12.87
2022-10-13T06:41:24.938Z,12.87
2022-10-13T06:42:25.151Z,12.90
2022-10-13T06:43:31.726Z,12.90
2022-10-13T06:44:26.488Z,12.90
2022-10-13T06:45:25.658Z,12.87
2022-10-13T06:46:25.811Z,12.94
2022-10-13T06:47:26.245Z,12.90
2022-10-13T06:48:26.159Z,12.94
2022-10-13T06:49:26.349Z,12.93
2022-10-13T06:50:26.541Z,12.97
2022-10-13T06:51:26.730Z,12.95
2022-10-13T06:52:26.898Z,12.94
2022-10-13T06:53:27.065Z,13.00
2022-10-13T06:54:27.213Z,13.00
2022-10-13T06:55:27.386Z,13.01
2022-10-13T06:56:27.579Z,13.05
2022-10-13T06:57:27.721Z,13.09
2022-10-13T06:58:27.905Z,13.12
2022-10-13T06:59:28.098Z,13.19
2022-10-13T07:00:28.309Z,13.22
2022-10-13T07:01:28.483Z,13.28
2022-10-13T07:02:28.621Z,13.33
2022-10-13T07:03:28.802Z,13.40
2022-10-13T07:04:28.953Z,13.46
2022-10-13T07:05:29.134Z,13.49
2022-10-13T07:06:29.301Z,13.55
2022-10-13T07:07:29.474Z,13.62
2022-10-13T07:08:29.654Z,13.67
2022-10-13T07:09:29.835Z,13.73
2022-10-13T07:10:30.020Z,13.84
2022-10-13T07:11:30.221Z,13.85
2022-10-13T07:12:30.381Z,13.91
2022-10-13T07:13:33.586Z,13.93
2022-10-13T07:14:31.746Z,13.99
2022-10-13T07:15:30.895Z,14.08
2022-10-13T07:16:31.109Z,14.16
2022-10-13T07:17:31.249Z,14.14
2022-10-13T07:18:31.437Z,14.26
2022-10-13T07:19:31.636Z,14.32
2022-10-13T07:20:31.788Z,14.37
2022-10-13T07:21:31.996Z,14.45
2022-10-13T07:22:32.133Z,14.52
2022-10-13T07:23:32.317Z,14.54
2022-10-13T07:24:32.519Z,14.62
2022-10-13T07:25:32.696Z,14.67
2022-10-13T07:26:32.882Z,14.80
2022-10-13T07:27:33.060Z,14.80
2022-10-13T07:28:33.307Z,14.91
2022-10-13T07:29:33.440Z,14.98
2022-10-13T07:30:33.600Z,15.06
2022-10-13T07:31:33.777Z,15.18
2022-10-13T07:32:33.940Z,15.21
2022-10-13T07:33:34.122Z,15.30
2022-10-13T07:34:34.312Z,15.35
2022-10-13T07:35:34.501Z,15.45
2022-10-13T07:36:34.701Z,15.47
2022-10-13T07:37:34.863Z,15.54
2022-10-13T07:38:35.051Z,15.60
2022-10-13T07:39:35.232Z,15.66
2022-10-13T07:40:35.424Z,15.77
2022-10-13T07:41:35.613Z,15.81
2022-10-13T07:42:35.777Z,15.87
2022-10-13T07:43:35.947Z,15.95
2022-10-13T07:44:36.138Z,16.05
2022-10-13T07:45:36.304Z,16.11
2022-10-13T07:46:36.480Z,16.23
2022-10-13T07:47:36.655Z,16.26
2022-10-13T07:48:36.846Z,16.32
2022-10-13T07:49:37.008Z,16.38
2022-10-13T07:50:37.185Z,16.50
2022-10-13T07:51:37.363Z,16.71
2022-10-13T07:52:37.556Z,17.01
2022-10-13T07:53:37.719Z,17.12
2022-10-13T07:54:37.907Z,17.12
2022-10-13T07:55:38.075Z,17.12
2022-10-13T07:56:38.269Z,17.16
2022-10-13T07:57:38.450Z,17.28
2022-10-13T07:58:38.637Z,17.47
2022-10-13T07:59:38.830Z,17.58
2022-10-13T08:00:38.982Z,17.62
2022-10-13T08:01:39.191Z,17.67
2022-10-13T08:02:39.309Z,17.68
2022-10-13T08:03:41.102Z,17.72
2022-10-13T08:04:39.651Z,17.78
2022-10-13T08:05:39.810Z,17.82
2022-10-13T08:07:40.160Z,17.89
2022-10-13T08:08:40.332Z,17.89
2022-10-13T08:09:40.531Z,17.89
2022-10-13T08:10:40.822Z,17.97
2022-10-13T08:11:40.861Z,17.98
2022-10-13T08:12:41.048Z,17.98
2022-10-13T08:13:41.211Z,17.97
2022-10-13T08:14:41.471Z,18.01
2022-10-13T08:15:41.543Z,18.02
2022-10-13T08:16:41.721Z,17.97
2022-10-13T08:17:41.886Z,18.04
2022-10-13T08:18:42.053Z,18.01
2022-10-13T08:19:42.234Z,18.04
2022-10-13T08:20:43.913Z,18.07
2022-10-13T08:21:59.587Z,18.10
2022-10-13T08:22:43.754Z,18.08
2022-10-13T08:23:42.924Z,18.15
2022-10-13T08:24:43.125Z,18.16
2022-10-13T08:25:43.290Z,18.19
2022-10-13T08:26:43.479Z,18.22
2022-10-13T08:27:51.115Z,18.27
2022-10-13T08:28:57.508Z,18.33
2022-10-13T08:29:45.046Z,18.35
2022-10-13T08:30:44.290Z,18.40
2022-10-13T08:31:44.590Z,18.48
2022-10-13T08:32:44.566Z,18.51
2022-10-13T08:33:44.713Z,18.54
2022-10-13T08:34:44.909Z,18.58
2022-10-13T08:35:45.095Z,18.61
2022-10-13T08:36:45.260Z,18.61
2022-10-13T08:37:45.429Z,18.71
2022-10-13T08:38:45.619Z,18.71
2022-10-13T08:39:45.789Z,18.71
2022-10-13T08:40:45.969Z,18.75
2022-10-13T08:41:46.130Z,18.75
2022-10-13T08:42:46.290Z,18.81
2022-10-13T08:44:24.721Z,18.81
2022-10-13T08:45:16.106Z,18.83
2022-10-13T08:45:47.790Z,18.83
2022-10-13T08:46:46.971Z,18.82
2022-10-13T08:47:47.161Z,18.83
2022-10-13T08:48:47.333Z,18.82
2022-10-13T08:49:47.513Z,18.90
2022-10-13T08:50:47.705Z,18.88
2022-10-13T08:51:47.893Z,18.93
2022-10-13T08:52:48.093Z,18.88
2022-10-13T08:53:48.235Z,18.93
2022-10-13T08:54:48.424Z,18.90
2022-10-13T08:55:48.573Z,18.88
2022-10-13T08:56:48.785Z,18.96
2022-10-13T08:57:48.945Z,18.96
2022-10-13T08:58:49.107Z,18.97
2022-10-13T08:59:49.266Z,18.96
2022-10-13T09:00:49.455Z,18.96
2022-10-13T09:01:49.689Z,18.96
2022-10-13T09:02:49.870Z,18.97
2022-10-13T09:03:50.007Z,18.97
2022-10-13T09:04:50.187Z,19.01
2022-10-13T09:05:50.368Z,19.03
2022-10-13T09:06:50.562Z,19.03
2022-10-13T09:07:50.837Z,19.05
2022-10-13T09:08:50.919Z,19.03
2022-10-13T09:09:51.099Z,19.06
2022-10-13T09:10:51.279Z,19.09
2022-10-13T09:11:51.465Z,19.11
2022-10-13T09:12:51.690Z,19.09
2022-10-13T09:13:51.827Z,19.16
2022-10-13T09:14:52.016Z,19.16
2022-10-13T09:15:52.202Z,19.16
2022-10-13T09:16:52.401Z,19.21
2022-10-13T09:17:52.573Z,19.19
2022-10-13T09:18:52.741Z,19.19
2022-10-13T09:19:52.925Z,19.26
2022-10-13T09:20:53.112Z,19.28
2022-10-13T09:21:53.315Z,19.30
2022-10-13T09:22:53.478Z,19.30
2022-10-13T09:23:53.661Z,19.34
2022-10-13T09:24:53.847Z,19.31
2022-10-13T09:25:54.033Z,19.34
2022-10-13T09:26:54.234Z,19.38
2022-10-13T09:27:54.519Z,19.42
2022-10-13T09:28:54.688Z,19.43
2022-10-13T09:29:54.757Z,19.46
2022-10-13T09:30:54.946Z,19.48
2022-10-13T09:31:55.126Z,19.52
2022-10-13T09:32:55.306Z,19.53
2022-10-13T09:33:55.447Z,19.55
2022-10-13T09:34:55.635Z,19.55
2022-10-13T09:35:55.818Z,19.59
2022-10-13T09:36:56.027Z,19.56
2022-10-13T09:37:56.180Z,19.61
2022-10-13T09:38:56.368Z,19.59
2022-10-13T09:39:56.553Z,19.67
2022-10-13T09:40:56.739Z,19.67
2022-10-13T09:41:56.941Z,19.67
2022-10-13T09:42:57.099Z,19.71
2022-10-13T09:43:57.288Z,19.73
2022-10-13T09:44:57.453Z,19.82
2022-10-13T09:45:57.624Z,19.82
2022-10-13T09:46:57.821Z,19.93
2022-10-13T09:47:57.971Z,19.96
2022-10-13T09:48:58.128Z,20.05
2022-10-13T09:50:00.061Z,20.14
2022-10-13T09:50:58.500Z,20.23
2022-10-13T09:51:58.688Z,20.26
2022-10-13T09:52:58.851Z,20.35
2022-10-13T09:53:59.037Z,20.41
2022-10-13T09:54:59.242Z,20.52
2022-10-13T09:55:59.384Z,20.57
2022-10-13T09:56:59.583Z,20.67
2022-10-13T09:57:59.758Z,20.70
2022-10-13T09:58:59.915Z,20.78
2022-10-13T10:01:00.273Z,20.84
2022-10-13T10:02:00.453Z,20.88
2022-10-13T10:03:00.645Z,20.86
2022-10-13T10:04:00.894Z,20.91
2022-10-13T10:05:00.995Z,21.03
2022-10-13T10:06:01.233Z,21.09
2022-10-13T10:07:01.355Z,21.16
2022-10-13T10:08:01.557Z,21.19
2022-10-13T10:09:04.145Z,21.23
2022-10-13T10:10:01.876Z,21.34
2022-10-13T10:11:02.069Z,21.34
2022-10-13T10:12:02.251Z,21.32
2022-10-13T10:13:02.686Z,21.35
2022-10-13T10:14:02.609Z,21.41
2022-10-13T10:15:02.814Z,21.44
2022-10-13T10:16:03.007Z,21.50
2022-10-13T10:17:03.159Z,21.53
2022-10-13T10:18:03.322Z,21.54
2022-10-13T10:19:03.502Z,21.67
2022-10-13T10:20:03.672Z,21.74
2022-10-13T10:21:03.845Z,21.78
2022-10-13T10:22:04.026Z,21.82
2022-10-13T10:23:04.215Z,21.90
2022-10-13T10:24:04.374Z,21.90
2022-10-13T10:25:04.560Z,21.93
2022-10-13T10:26:04.744Z,21.97
2022-10-13T10:27:05.045Z,22.02
2022-10-13T10:28:05.103Z,22.04
2022-10-13T10:29:05.273Z,22.12
2022-10-13T10:30:05.444Z,22.14
2022-10-13T10:31:05.622Z,22.23
2022-10-13T10:32:05.806Z,22.24
2022-10-13T10:33:05.973Z,22.31
2022-10-13T10:34:06.133Z,22.37
2022-10-13T10:35:06.305Z,22.42
2022-10-13T10:36:06.466Z,22.46
2022-10-13T10:37:06.647Z,22.53
2022-10-13T10:38:06.798Z,22.59
2022-10-13T10:39:06.990Z,22.66
2022-10-13T10:40:07.150Z,22.68
2022-10-13T10:41:07.310Z,22.71
2022-10-13T10:42:07.506Z,22.71
2022-10-13T10:43:07.668Z,22.75
2022-10-13T10:44:07.848Z,22.75
2022-10-13T10:45:08.059Z,22.82
2022-10-13T10:46:08.220Z,22.83
2022-10-13T10:47:08.371Z,22.84
2022-10-13T10:48:08.571Z,22.86
2022-10-13T10:49:08.745Z,22.86
2022-10-13T10:50:08.923Z,22.87
2022-10-13T10:51:09.091Z,22.90
2022-10-13T10:52:09.242Z,22.90
2022-10-13T10:53:09.433Z,22.89
2022-10-13T10:54:09.622Z,22.90
2022-10-13T10:55:09.792Z,22.93
2022-10-13T10:56:09.979Z,22.93
2022-10-13T10:57:10.174Z,22.98
2022-10-13T10:58:10.354Z,22.98
2022-10-13T10:59:10.514Z,23.01
2022-10-13T11:00:10.741Z,23.01
2022-10-13T11:01:10.942Z,22.98
2022-10-13T11:02:11.055Z,23.02
2022-10-13T11:03:11.263Z,23.05
2022-10-13T11:04:11.472Z,23.01
2022-10-13T11:05:11.587Z,23.02
2022-10-13T11:06:11.777Z,23.04
2022-10-13T11:07:11.971Z,23.01
2022-10-13T11:08:12.167Z,23.02
2022-10-13T11:09:12.353Z,22.97
2022-10-13T11:10:12.510Z,22.93
2022-10-13T11:11:12.708Z,22.92
2022-10-13T11:12:12.870Z,22.89
2022-10-13T11:13:13.079Z,22.86
2022-10-13T11:14:13.229Z,22.83
2022-10-13T11:15:13.420Z,22.83
2022-10-13T11:16:13.608Z,22.80
2022-10-13T11:17:13.792Z,22.79
2022-10-13T11:18:16.451Z,22.77
2022-10-13T11:19:14.173Z,22.75
2022-10-13T11:20:14.360Z,22.71
2022-10-13T11:21:14.545Z,22.68
2022-10-13T11:22:14.728Z,22.70
2022-10-13T11:23:14.953Z,22.71
2022-10-13T11:24:15.093Z,22.71
2022-10-13T11:25:15.267Z,22.74
2022-10-13T11:26:15.455Z,22.74
2022-10-13T11:27:15.650Z,22.68
2022-10-13T11:28:15.863Z,22.75
2022-10-13T11:29:15.996Z,22.71
2022-10-13T11:30:16.154Z,22.75
2022-10-13T11:31:16.326Z,22.77
2022-10-13T11:32:16.494Z,22.77
2022-10-13T11:33:16.676Z,22.75
2022-10-13T11:34:16.886Z,22.74
2022-10-13T11:35:17.038Z,22.74
2022-10-13T11:36:17.226Z,22.71
2022-10-13T11:37:17.418Z,22.70
2022-10-13T11:38:18.004Z,22.68
2022-10-13T11:39:17.837Z,22.64
2022-10-13T11:40:17.979Z,22.66
2022-10-13T11:41:18.158Z,22.66
2022-10-13T11:42:18.497Z,22.64
2022-10-13T11:43:18.530Z,22.60
2022-10-13T11:44:18.796Z,22.63
2022-10-13T11:45:18.901Z,22.59
2022-10-13T11:46:19.070Z,22.59
2022-10-13T11:47:19.512Z,22.55
2022-10-13T11:48:19.422Z,22.60
2022-10-13T11:49:19.572Z,22.55
2022-10-13T11:50:19.759Z,22.56
2022-10-13T11:51:19.963Z,22.59
2022-10-13T11:52:20.383Z,22.55
2022-10-13T11:53:20.301Z,22.60
2022-10-13T11:54:20.483Z,22.64
2022-10-13T11:55:20.674Z,22.66
2022-10-13T11:56:20.878Z,22.67
2022-10-13T11:57:21.034Z,22.70
2022-10-13T11:58:21.197Z,22.77
2022-10-13T11:59:21.377Z,22.82
2022-10-13T12:00:21.556Z,22.83
2022-10-13T12:01:21.730Z,22.89
2022-10-13T12:02:22.351Z,22.92
2022-10-13T12:03:22.068Z,22.92
2022-10-13T12:04:22.240Z,22.97
2022-10-13T12:05:22.406Z,22.99
2022-10-13T12:06:22.558Z,22.98
2022-10-13T12:07:22.760Z,22.98
2022-10-13T12:08:22.928Z,23.04
2022-10-13T12:09:23.098Z,23.04
2022-10-13T12:10:23.270Z,23.02
2022-10-13T12:11:23.444Z,23.04
2022-10-13T12:12:23.767Z,23.07
2022-10-13T12:13:24.008Z,23.08
2022-10-13T12:14:24.075Z,23.07
2022-10-13T12:15:24.112Z,23.11
2022-10-13T12:16:24.313Z,23.08
2022-10-13T12:17:24.549Z,23.12
2022-10-13T12:18:24.664Z,23.12
2022-10-13T12:19:24.848Z,23.09
2022-10-13T12:20:25.033Z,23.11
2022-10-13T12:21:25.232Z,23.12
2022-10-13T12:22:25.393Z,23.14
2022-10-13T12:23:25.581Z,23.11
2022-10-13T12:24:25.783Z,23.12
2022-10-13T12:25:25.964Z,23.11
2022-10-13T12:26:26.143Z,23.16
2022-10-13T12:27:26.336Z,23.14
2022-10-13T12:28:26.572Z,23.17
2022-10-13T12:29:26.673Z,23.17
2022-10-13T12:30:26.879Z,23.14
2022-10-13T12:31:27.035Z,23.09
2022-10-13T12:32:27.221Z,23.08
2022-10-13T12:33:27.412Z,23.08
2022-10-13T12:34:27.645Z,23.07
2022-10-13T12:35:27.780Z,23.05
2022-10-13T12:36:30.022Z,23.01
2022-10-13T12:37:28.139Z,22.94
2022-10-13T12:38:28.350Z,22.94
2022-10-13T12:39:28.509Z,22.87
2022-10-13T12:40:28.711Z,22.90
2022-10-13T12:41:28.870Z,22.84
2022-10-13T12:42:29.061Z,22.84
2022-10-13T12:43:29.261Z,22.80
2022-10-13T12:44:29.424Z,22.80
2022-10-13T12:45:29.605Z,22.74
2022-10-13T12:46:29.792Z,22.71
2022-10-13T12:47:29.972Z,22.63
2022-10-13T12:48:30.172Z,22.64
2022-10-13T12:49:30.335Z,22.63
2022-10-13T12:50:30.525Z,22.59
2022-10-13T12:51:30.723Z,22.59
2022-10-13T12:52:30.888Z,22.55
2022-10-13T12:53:31.085Z,22.49
2022-10-13T12:54:31.250Z,22.49
2022-10-13T12:55:31.434Z,22.51
2022-10-13T12:56:31.624Z,22.49